createdAt,value
2022-11-17T00:02:21.524Z,5.30
2022-11-17T00:04:53.920Z,5.70
2022-11-17T00:07:26.153Z,5.60
2022-11-17T00:09:58.309Z,5.20
2022-11-17T00:15:23.903Z,4.30
2022-11-17T00:21:08.761Z,5.30
2022-11-17T00:23:50.523Z,5.20
2022-11-17T00:26:24.591Z,5.30
2022-11-17T00:28:58.156Z,4.70
2022-11-17T00:31:50.122Z,4.40
2022-11-17T00:34:24.103Z,4.00
2022-11-17T00:36:58.236Z,4.40
2022-11-17T00:39:30.328Z,4.00
2022-11-17T00:44:33.694Z,3.50
2022-11-17T00:47:06.131Z,3.60
2022-11-17T00:49:38.241Z,3.70
2022-11-17T00:52:10.602Z,3.30
2022-11-17T00:54:42.751Z,3.30
2022-11-17T00:59:45.454Z,2.70
2022-11-17T01:04:48.425Z,3.20
2022-11-17T01:09:51.727Z,3.40
2022-11-17T01:14:54.644Z,3.20
2022-11-17T01:19:57.515Z,3.70
2022-11-17T01:22:29.838Z,3.30
2022-11-17T01:25:02.021Z,3.70
2022-11-17T01:27:34.422Z,3.80
2022-11-17T01:32:37.846Z,3.70
2022-11-17T01:35:11.218Z,4.00
2022-11-17T01:37:43.658Z,4.20
2022-11-17T01:40:16.809Z,4.70
2022-11-17T01:42:48.881Z,4.60
2022-11-17T01:47:56.577Z,4.60
2022-11-17T01:50:33.006Z,4.70
2022-11-17T01:53:08.547Z,4.50
2022-11-17T01:55:45.101Z,4.70
2022-11-17T01:58:20.173Z,4.60
2022-11-17T02:00:53.985Z,4.30
2022-11-17T02:03:28.477Z,4.40
2022-11-17T02:06:07.881Z,4.20
2022-11-17T02:08:42.939Z,4.10
2022-11-17T02:11:19.510Z,4.60
2022-11-17T02:13:53.499Z,4.80
2022-11-17T02:16:25.689Z,4.60
2022-11-17T02:22:00.748Z,3.80
2022-11-17T02:24:52.220Z,4.00
2022-11-17T02:27:44.305Z,4.40
2022-11-17T02:30:19.605Z,4.70
2022-11-17T02:33:02.866Z,4.10
2022-11-17T02:35:42.059Z,3.90
2022-11-17T02:38:28.465Z,3.80
2022-11-17T02:43:58.249Z,3.90
2022-11-17T02:46:33.625Z,4.40
2022-11-17T02:49:12.363Z,4.60
2022-11-17T02:51:47.201Z,3.70
2022-11-17T02:54:21.055Z,4.20
2022-11-17T02:56:53.247Z,4.00
2022-11-17T03:04:46.925Z,4.00
2022-11-17T03:07:32.090Z,4.10
2022-11-17T03:10:13.571Z,4.00
2022-11-17T03:12:54.735Z,4.00
2022-11-17T03:15:36.877Z,4.00
2022-11-17T03:18:17.098Z,3.40
2022-11-17T03:20:58.302Z,3.80
2022-11-17T03:23:38.471Z,3.40
2022-11-17T03:26:14.629Z,3.00
2022-11-17T03:28:49.771Z,3.00
2022-11-17T03:31:23.918Z,3.40
2022-11-17T03:33:57.132Z,3.10
2022-11-17T03:36:33.725Z,3.10
2022-11-17T03:39:12.399Z,2.90
2022-11-17T03:41:48.377Z,3.00
2022-11-17T03:44:22.342Z,2.40
2022-11-17T03:46:55.738Z,2.80
2022-11-17T03:49:34.185Z,2.60
2022-11-17T03:52:07.106Z,2.70
2022-11-17T03:54:40.868Z,2.50
2022-11-17T03:57:18.334Z,2.50
2022-11-17T03:59:56.978Z,2.70
2022-11-17T04:02:29.747Z,1.80
2022-11-17T04:05:08.118Z,2.50
2022-11-17T04:07:42.397Z,1.90
2022-11-17T04:10:16.071Z,2.20
2022-11-17T04:13:06.261Z,2.10
2022-11-17T04:15:55.872Z,2.40
2022-11-17T04:18:28.534Z,2.00
2022-11-17T04:21:00.816Z,1.90
2022-11-17T04:26:22.466Z,2.10
2022-11-17T04:28:55.116Z,2.10
2022-11-17T04:31:28.975Z,1.70
2022-11-17T04:34:03.138Z,2.10
2022-11-17T04:36:43.406Z,1.80
2022-11-17T04:39:17.004Z,1.90
2022-11-17T04:41:57.484Z,1.90
2022-11-17T04:44:31.103Z,2.20
2022-11-17T04:47:03.720Z,2.30
2022-11-17T04:49:35.817Z,1.90
2022-11-17T04:52:08.492Z,2.30
2022-11-17T04:54:41.037Z,2.60
2022-11-17T04:57:13.220Z,2.60
2022-11-17T05:02:15.910Z,2.40
2022-11-17T05:04:57.290Z,2.30
2022-11-17T05:07:29.316Z,2.00
2022-11-17T05:10:01.660Z,2.30
2022-11-17T05:12:51.560Z,2.40
2022-11-17T05:15:44.163Z,2.00
2022-11-17T05:18:16.462Z,2.10
2022-11-17T05:20:48.727Z,2.20
2022-11-17T05:23:38.534Z,2.30
2022-11-17T05:26:10.810Z,4.20
2022-11-17T05:28:43.662Z,2.90
2022-11-17T05:31:16.196Z,2.80
2022-11-17T05:33:48.599Z,2.90
2022-11-17T05:38:52.892Z,2.30
2022-11-17T05:41:25.704Z,3.40
2022-11-17T05:43:58.358Z,2.30
2022-11-17T05:46:30.809Z,2.20
2022-11-17T05:49:03.034Z,2.80
2022-11-17T05:54:06.200Z,2.20
2022-11-17T05:56:44.444Z,2.60
2022-11-17T05:59:27.752Z,2.40
2022-11-17T06:02:04.762Z,2.10
2022-11-17T06:04:37.271Z,2.50
2022-11-17T06:07:11.068Z,2.30
2022-11-17T06:09:44.405Z,2.60
2022-11-17T06:12:16.710Z,2.50
2022-11-17T06:14:48.976Z,2.30
2022-11-17T06:17:26.341Z,2.40
2022-11-17T06:20:03.080Z,3.00
2022-11-17T06:22:35.889Z,2.80
2022-11-17T06:25:11.204Z,2.80
2022-11-17T06:27:44.253Z,3.00
2022-11-17T06:30:16.870Z,2.60
2022-11-17T06:32:50.153Z,2.40
2022-11-17T06:35:22.270Z,2.60
2022-11-17T06:37:54.370Z,2.30
2022-11-17T06:40:26.496Z,2.30
2022-11-17T06:45:42.367Z,1.80
2022-11-17T06:48:15.989Z,1.80
2022-11-17T06:50:50.987Z,1.80
2022-11-17T06:53:26.480Z,1.60
2022-11-17T06:56:03.818Z,1.50
2022-11-17T06:58:37.039Z,1.50
2022-11-17T07:01:12.430Z,1.50
2022-11-17T07:03:45.045Z,1.20
2022-11-17T07:06:18.971Z,1.10
2022-11-17T07:08:51.927Z,1.30
2022-11-17T07:11:25.479Z,1.20
2022-11-17T07:13:57.924Z,1.30
2022-11-17T07:16:31.098Z,1.20
2022-11-17T07:19:03.913Z,1.20
2022-11-17T07:21:36.091Z,1.20
2022-11-17T07:24:09.171Z,1.00
2022-11-17T07:26:41.520Z,1.20
2022-11-17T07:29:13.674Z,1.00
2022-11-17T07:31:45.725Z,1.40
2022-11-17T07:34:17.881Z,1.40
2022-11-17T07:39:21.936Z,1.60
2022-11-17T07:41:54.130Z,2.10
2022-11-17T07:46:57.120Z,1.30
2022-11-17T07:51:59.880Z,2.00
2022-11-17T07:54:32.179Z,1.90
2022-11-17T07:57:04.413Z,1.50
2022-11-17T08:02:07.142Z,2.00
2022-11-17T08:04:39.394Z,1.50
2022-11-17T08:09:42.034Z,2.00
2022-11-17T08:12:14.210Z,2.00
2022-11-17T08:14:46.399Z,1.70
2022-11-17T08:19:49.554Z,1.60
2022-11-17T08:22:21.647Z,1.80
2022-11-17T08:24:53.635Z,1.90
2022-11-17T08:29:56.109Z,2.10
2022-11-17T08:32:29.483Z,1.90
2022-11-17T08:35:01.782Z,1.70
2022-11-17T08:40:04.435Z,1.60
2022-11-17T08:42:36.475Z,1.50
2022-11-17T08:45:11.903Z,1.90
2022-11-17T08:48:01.773Z,1.90
2022-11-17T08:50:33.920Z,2.30
2022-11-17T08:53:12.158Z,2.10
2022-11-17T08:55:44.283Z,1.90
2022-11-17T08:58:16.652Z,1.60
2022-11-17T09:00:48.710Z,2.00
2022-11-17T09:03:20.912Z,1.80
2022-11-17T09:08:44.366Z,1.50
2022-11-17T09:11:16.638Z,1.50
2022-11-17T09:13:49.304Z,1.60
2022-11-17T09:16:23.999Z,1.20
2022-11-17T09:18:58.505Z,1.40
2022-11-17T09:21:31.838Z,1.40
2022-11-17T09:24:03.833Z,1.30
2022-11-17T09:26:35.962Z,1.90
2022-11-17T09:29:08.196Z,1.40
2022-11-17T09:31:40.729Z,1.60
2022-11-17T09:34:13.060Z,2.10
2022-11-17T09:36:45.276Z,1.50
2022-11-17T09:41:50.024Z,1.60
2022-11-17T09:44:41.608Z,1.60
2022-11-17T09:47:20.872Z,2.00
2022-11-17T09:49:59.399Z,1.20
2022-11-17T09:52:44.066Z,1.80
2022-11-17T09:55:23.829Z,1.60
2022-11-17T09:58:08.006Z,1.60
2022-11-17T10:00:42.935Z,1.80
2022-11-17T10:03:21.274Z,1.70
2022-11-17T10:05:54.395Z,1.40
2022-11-17T10:08:41.138Z,1.40
2022-11-17T10:11:34.160Z,1.90
2022-11-17T10:14:15.135Z,1.80
2022-11-17T10:16:53.464Z,1.20
2022-11-17T10:19:29.398Z,1.80
2022-11-17T10:22:20.845Z,1.70
2022-11-17T10:24:55.572Z,1.60
2022-11-17T10:27:29.985Z,1.60
2022-11-17T10:30:05.249Z,1.90
2022-11-17T10:32:42.703Z,1.90
2022-11-17T10:35:19.744Z,2.00
2022-11-17T10:37:58.541Z,2.10
2022-11-17T10:40:33.268Z,1.80
2022-11-17T10:43:22.069Z,2.10
2022-11-17T10:45:56.532Z,2.50
2022-11-17T10:48:32.123Z,2.40
2022-11-17T10:51:09.264Z,2.30
2022-11-17T10:53:46.534Z,1.60
2022-11-17T10:56:22.294Z,2.30
2022-11-17T10:59:17.953Z,2.10
2022-11-17T11:01:52.946Z,1.90
2022-11-17T11:04:33.819Z,1.90
2022-11-17T11:07:20.388Z,1.70
2022-11-17T11:10:02.733Z,1.70
2022-11-17T11:12:37.704Z,2.40
2022-11-17T11:15:35.296Z,2.60
2022-11-17T11:18:15.188Z,1.80
2022-11-17T11:20:51.591Z,1.90
2022-11-17T11:23:35.981Z,2.10
2022-11-17T11:26:21.210Z,2.30
2022-11-17T11:29:06.921Z,2.80
2022-11-17T11:31:50.785Z,2.30
2022-11-17T11:34:46.318Z,2.40
2022-11-17T11:37:18.981Z,2.10
2022-11-17T11:39:56.676Z,1.70
2022-11-17T11:42:46.058Z,2.30
2022-11-17T11:45:24.291Z,1.80
2022-11-17T11:48:16.622Z,2.10
2022-11-17T11:51:06.931Z,2.20
2022-11-17T11:53:52.037Z,1.60
2022-11-17T11:56:28.833Z,1.60
2022-11-17T11:59:05.396Z,2.10
2022-11-17T12:01:48.603Z,2.40
2022-11-17T12:04:31.449Z,2.90
2022-11-17T12:07:14.032Z,2.70
2022-11-17T12:09:58.329Z,2.90
2022-11-17T12:12:34.002Z,2.90
2022-11-17T12:15:34.084Z,2.60
2022-11-17T12:18:12.572Z,2.60
2022-11-17T12:20:59.013Z,2.90
2022-11-17T12:24:15.820Z,2.40
2022-11-17T12:26:47.992Z,2.30
2022-11-17T12:29:32.633Z,2.10
2022-11-17T12:32:05.442Z,2.30
2022-11-17T12:34:38.210Z,1.80
2022-11-17T12:37:26.264Z,2.20
2022-11-17T12:40:09.817Z,2.50
2022-11-17T12:43:19.020Z,2.50
2022-11-17T12:46:08.199Z,2.40
2022-11-17T12:48:46.926Z,2.50
2022-11-17T12:51:28.404Z,2.30
2022-11-17T12:54:07.952Z,2.30
2022-11-17T12:56:48.393Z,2.20
2022-11-17T12:59:50.489Z,2.60
2022-11-17T13:02:38.602Z,2.50
2022-11-17T13:05:18.444Z,2.50
2022-11-17T13:07:50.832Z,2.60
2022-11-17T13:10:29.428Z,2.60
2022-11-17T13:13:17.972Z,2.80
2022-11-17T13:15:54.643Z,2.70
2022-11-17T13:18:32.980Z,2.90
2022-11-17T13:21:06.023Z,3.40
2022-11-17T13:23:46.124Z,2.40
2022-11-17T13:26:25.222Z,3.20
2022-11-17T13:29:07.628Z,2.90
2022-11-17T13:34:17.773Z,2.70
2022-11-17T13:36:58.416Z,2.50
2022-11-17T13:39:31.082Z,2.80
2022-11-17T13:42:04.286Z,3.10
2022-11-17T13:44:37.157Z,2.40
2022-11-17T13:47:23.165Z,2.90
2022-11-17T13:49:55.213Z,3.60
2022-11-17T13:55:17.305Z,3.60
2022-11-17T13:57:58.210Z,3.60
2022-11-17T14:00:31.548Z,4.00
2022-11-17T14:03:05.702Z,3.50
2022-11-17T14:05:37.981Z,3.50
2022-11-17T14:11:15.299Z,3.20
2022-11-17T14:13:49.151Z,3.90
2022-11-17T14:16:34.107Z,3.50
2022-11-17T14:19:27.461Z,2.60
2022-11-17T14:22:27.501Z,4.00
2022-11-17T14:25:03.172Z,3.70
2022-11-17T14:27:42.489Z,3.10
2022-11-17T14:30:16.747Z,3.30
2022-11-17T14:32:48.729Z,4.30
2022-11-17T14:37:51.832Z,3.80
2022-11-17T14:42:55.077Z,4.00
2022-11-17T14:45:27.364Z,3.60
2022-11-17T14:47:59.429Z,4.00
2022-11-17T14:50:31.626Z,4.90
2022-11-17T14:53:04.109Z,4.50
2022-11-17T14:55:36.148Z,3.40
2022-11-17T14:58:09.890Z,5.00
2022-11-17T15:00:42.071Z,4.30
2022-11-17T15:05:48.828Z,3.90
2022-11-17T15:08:20.990Z,3.60
2022-11-17T15:13:24.764Z,3.90
2022-11-17T15:16:03.554Z,4.40
2022-11-17T15:18:35.844Z,5.10
2022-11-17T15:21:09.583Z,4.60
2022-11-17T15:23:42.827Z,4.50
2022-11-17T15:26:17.007Z,3.70
2022-11-17T15:28:49.400Z,4.90
2022-11-17T15:31:23.886Z,4.90
2022-11-17T15:33:56.775Z,4.20
2022-11-17T15:36:29.635Z,4.10
2022-11-17T15:39:02.058Z,4.20
2022-11-17T15:41:34.521Z,4.80
2022-11-17T15:44:07.003Z,4.70
2022-11-17T15:46:44.325Z,4.30
2022-11-17T15:49:19.829Z,5.60
2022-11-17T15:51:52.992Z,4.90
2022-11-17T15:54:25.524Z,4.70
2022-11-17T15:59:29.039Z,5.00
2022-11-17T16:02:08.640Z,4.60
2022-11-17T16:04:41.310Z,4.30
2022-11-17T16:07:13.536Z,5.20
2022-11-17T16:09:49.218Z,4.70
2022-11-17T16:12:23.817Z,4.70
2022-11-17T16:14:56.479Z,5.20
2022-11-17T16:17:28.624Z,5.20
2022-11-17T16:22:33.509Z,5.00
2022-11-17T16:25:07.328Z,4.90
2022-11-17T16:27:40.078Z,5.00
2022-11-17T16:30:15.601Z,6.20
2022-11-17T16:32:47.602Z,5.40
2022-11-17T16:35:19.855Z,6.10
2022-11-17T16:37:55.207Z,5.60
2022-11-17T16:40:27.294Z,5.60
2022-11-17T16:43:00.236Z,6.20
2022-11-17T16:45:32.533Z,6.30
2022-11-17T16:48:05.321Z,5.70
2022-11-17T16:50:39.525Z,6.10
2022-11-17T16:53:11.814Z,6.00
2022-11-17T16:55:43.980Z,6.60
2022-11-17T17:00:47.100Z,6.60
2022-11-17T17:03:20.664Z,5.80
2022-11-17T17:05:53.785Z,6.20
2022-11-17T17:08:27.628Z,5.30
2022-11-17T17:11:04.259Z,5.30
2022-11-17T17:13:37.489Z,7.00
2022-11-17T17:16:11.962Z,6.00
2022-11-17T17:18:44.589Z,6.40
2022-11-17T17:21:18.743Z,6.30
2022-11-17T17:23:50.812Z,6.90
2022-11-17T17:26:24.854Z,6.40
2022-11-17T17:28:58.658Z,6.60
2022-11-17T17:31:32.953Z,6.80
2022-11-17T17:34:06.921Z,6.40
2022-11-17T17:36:39.434Z,3.80
2022-11-17T17:39:15.345Z,6.80
2022-11-17T17:41:47.615Z,6.80
2022-11-17T17:44:21.139Z,6.00
2022-11-17T17:46:53.325Z,5.70
2022-11-17T17:49:25.411Z,7.60
2022-11-17T17:51:57.789Z,5.00
2022-11-17T17:54:29.848Z,7.20
2022-11-17T17:59:32.399Z,8.40
2022-11-17T18:04:35.035Z,8.00
2022-11-17T18:09:38.450Z,9.40
2022-11-17T18:14:41.232Z,7.70
2022-11-17T18:17:13.760Z,7.10
2022-11-17T18:19:46.125Z,5.90
2022-11-17T18:22:18.345Z,5.20
2022-11-17T18:24:50.672Z,6.80
2022-11-17T18:27:23.009Z,6.70
2022-11-17T18:29:55.690Z,5.20
2022-11-17T18:32:28.407Z,7.20
2022-11-17T18:35:01.057Z,4.30
2022-11-17T18:37:33.316Z,5.00
2022-11-17T18:40:06.365Z,4.50
2022-11-17T18:42:38.561Z,5.80
2022-11-17T18:47:42.018Z,5.00
2022-11-17T18:50:14.698Z,5.60
2022-11-17T18:52:47.473Z,5.70
2022-11-17T18:55:21.346Z,5.60
2022-11-17T18:57:53.747Z,5.70
2022-11-17T19:02:57.224Z,5.70
2022-11-17T19:07:59.826Z,5.40
2022-11-17T19:13:04.902Z,5.00
2022-11-17T19:15:37.742Z,5.30
2022-11-17T19:18:09.955Z,5.60
2022-11-17T19:20:42.355Z,5.70
2022-11-17T19:23:14.549Z,6.30
2022-11-17T19:28:19.718Z,5.70
2022-11-17T19:30:51.853Z,5.50
2022-11-17T19:33:23.915Z,5.80
2022-11-17T19:35:55.988Z,5.90
2022-11-17T19:38:28.077Z,6.70
2022-11-17T19:41:06.118Z,6.20
2022-11-17T19:43:45.139Z,5.20
2022-11-17T19:46:18.842Z,5.80
2022-11-17T19:48:51.754Z,7.10
2022-11-17T19:51:26.965Z,6.60
2022-11-17T19:54:01.776Z,6.00
2022-11-17T19:56:36.793Z,5.90
2022-11-17T19:59:15.223Z,4.90
2022-11-17T20:01:48.121Z,5.20
2022-11-17T20:04:21.060Z,6.80
2022-11-17T20:06:53.923Z,5.20
2022-11-17T20:09:26.699Z,6.00
2022-11-17T20:11:59.599Z,6.00
2022-11-17T20:14:32.180Z,6.10
2022-11-17T20:17:04.802Z,6.30
2022-11-17T20:19:37.853Z,5.70
2022-11-17T20:22:10.552Z,5.70
2022-11-17T20:24:43.574Z,6.00
2022-11-17T20:27:16.325Z,5.60
2022-11-17T20:29:48.376Z,6.30
2022-11-17T20:32:20.410Z,6.10
2022-11-17T20:34:52.971Z,5.60
2022-11-17T20:37:25.984Z,5.90
2022-11-17T20:39:58.264Z,5.80
2022-11-17T20:45:01.022Z,5.80
2022-11-17T20:47:33.504Z,6.90
2022-11-17T20:52:37.376Z,6.00
2022-11-17T20:55:10.843Z,6.00
2022-11-17T20:57:43.251Z,5.60
2022-11-17T21:00:18.015Z,6.20
2022-11-17T21:02:50.626Z,5.90
2022-11-17T21:05:22.796Z,5.60
2022-11-17T21:07:58.255Z,6.20
2022-11-17T21:10:30.563Z,5.80
2022-11-17T21:15:33.308Z,6.60
2022-11-17T21:18:22.832Z,6.50
2022-11-17T21:20:57.121Z,6.50
2022-11-17T21:23:29.618Z,6.40
2022-11-17T21:26:06.938Z,5.10
2022-11-17T21:28:40.505Z,6.10
2022-11-17T21:31:15.244Z,6.50
2022-11-17T21:33:48.071Z,6.50
2022-11-17T21:36:21.088Z,6.20
2022-11-17T21:38:53.300Z,6.10
2022-11-17T21:43:59.434Z,6.70
2022-11-17T21:46:34.606Z,6.40
2022-11-17T21:49:06.710Z,6.90
2022-11-17T21:54:13.219Z,5.50
2022-11-17T21:56:46.110Z,5.40
2022-11-17T21:59:18.562Z,6.50
2022-11-17T22:01:51.178Z,6.00
2022-11-17T22:04:23.420Z,6.70
2022-11-17T22:06:55.571Z,6.50
2022-11-17T22:11:58.592Z,7.00
2022-11-17T22:14:30.583Z,5.50
2022-11-17T22:17:02.542Z,6.70
2022-11-17T22:19:34.569Z,6.70
2022-11-17T22:22:08.158Z,5.60
2022-11-17T22:24:42.361Z,6.10
2022-11-17T22:27:16.741Z,5.90
2022-11-17T22:29:48.832Z,5.40
2022-11-17T22:32:21.070Z,6.10
2022-11-17T22:34:53.975Z,6.90
2022-11-17T22:37:26.198Z,6.70
2022-11-17T22:42:29.036Z,23.90
2022-11-17T22:45:01.174Z,6.60
2022-11-17T22:47:33.948Z,6.10
2022-11-17T22:50:06.757Z,6.40
2022-11-17T22:52:39.345Z,7.00
2022-11-17T22:55:12.254Z,7.60
2022-11-17T22:57:44.369Z,6.90
2022-11-17T23:02:48.506Z,6.50
2022-11-17T23:05:20.853Z,5.20
2022-11-17T23:07:53.095Z,6.40
2022-11-17T23:12:56.160Z,6.10
2022-11-17T23:15:29.124Z,6.80
2022-11-17T23:18:01.276Z,7.60
2022-11-17T23:23:04.699Z,6.90
2022-11-17T23:25:36.950Z,5.80
2022-11-17T23:28:09.294Z,6.20
2022-11-17T23:33:11.953Z,6.80
2022-11-17T23:38:14.658Z,5.70
2022-11-17T23:40:46.763Z,5.70
2022-11-17T23:43:19.190Z,6.20
2022-11-17T23:45:51.970Z,6.40
2022-11-17T23:48:24.513Z,6.90
2022-11-17T23:50:56.615Z,6.30
2022-11-17T23:53:28.983Z,7.20
2022-11-17T23:56:02.586Z,7.20
2022-11-17T23:58:35.222Z,7.70
